Terminal Aerodrome Forecast
Issued by NWS Paducah, KY

Home | Current Version | Previous Version | Text Only | Print | Product List | Glossary On
Versions: 1 2 3 4 5 6 7 8 9 10 11 12 13 14 15 16 17 18
068
FTUS43 KPAH 200520
TAFPAH
TAF
KPAH 200520Z 2006/2106 21005KT 6SM BR SCT015 OVC070
      TEMPO 2008/2012 3SM BR OVC009
     FM201200 18005KT 4SM BR OVC006
     FM201800 19009KT P6SM OVC012
     FM210300 19006KT 6SM BR OVC025=

USA.gov is the U.S. government's official web portal to all federal, state and local government web resources and services.